RUNWAY INFORMATION
Runway Length Width Elevation Displaced
Threshold
Heading | Runway Length Width Elevation Displaced
Threshold
Heading
10 9636 ft 148 ft 779 ft 312 ft 105 | 28 9636 ft 148 ft 754 ft 427 ft 285
12 2552 ft 59 ft 782 ft 210 ft 121 | 30 2552 ft 59 ft 782 ft 328 ft 301

 AIRPORT FREQUENCIES
Type APP Name MILANO APP Frequency 126.75 MHZ
Type ATIS Name ATIS Frequency 112.6 MHZ
Type GND Name ORIO GND Frequency 120.5 MHZ
Type TWR Name ORIO TWR Frequency 126.5 MHZ

 AIRPORT NEAR NAVIGATION AIDS
Type VOR-DME Name Orio Al Serio Frequency 112600 KHZ
Type NDB Name Orio Al Serio Frequency 377 KHZ

 METAR AND TAF INFORMATION
METAR FOR LIME
ADDS - METARS form results

(1957 UTC 25 February 2021)
Data provider http://aviationweather.gov/metar/data/
 
METAR text: LIME 251950Z 01004KT 9000 NSC 11/05 Q1031 NOSIG
Conditions at: LIME (BERGAMO/ORIO SER, IT) observed 1950 UTC 25 February 2021
Temperature: 11.0°C (52°F)
Dewpoint: 5.0°C (41°F) [RH = 66%]
Pressure (altimeter): 30.44 inches Hg (1031.0 mb)
Winds: from the N (10 degrees) at 5 MPH (4 knots; 2.1 m/s)
Visibility: 6 miles ( 9 km)
Ceiling: at least 12,000 feet AGL
Clouds: sky clear below 12,000 feet AGL
Weather: no significant weather observed at this time

METAR text: LIME 251920Z 36003KT 9000 NSC 12/05 Q1031 NOSIG
Conditions at: LIME (BERGAMO/ORIO SER, IT) observed 1920 UTC 25 February 2021
Temperature: 12.0°C (54°F)
Dewpoint: 5.0°C (41°F) [RH = 62%]
Pressure (altimeter): 30.44 inches Hg (1031.0 mb)
Winds: from the N (360 degrees) at 3 MPH (3 knots; 1.5 m/s)
Visibility: 6 miles ( 9 km)
Ceiling: at least 12,000 feet AGL
Clouds: sky clear below 12,000 feet AGL
Weather: no significant weather observed at this time

Forecast for: LIME (BERGAMO/ORIO SER, IT)
Text: TAF LIME 251700Z 2518/2618 VRB04KT CAVOK
Forecast period: 1800 UTC 25 February 2021 to 1800 UTC 26 February 2021
Forecast type: FROM: standard forecast or significant change
Winds: variable direction winds at 5 MPH (4 knots; 2.1 m/s)
Visibility: 6 or more miles (10+ km)
Ceiling: unknown
Clouds: missing
Weather: NSW  (no significant weather)



© 2013 - 2021, FlightSimLog.org - Powered by Virtual Airlines Manager